Time;durP1;ratioP1;P1;durP2;ratioP2;P2;SDS_P1;SDS_P2;PMS_P1;PMS_P2;Temp;Humidity;BMP_temperature;BMP_pressure;BME280_temperature;BME280_humidity;BME280_pressure;Samples;Min_cycle;Max_cycle;Signal;HPM_P1;HPM_P2
2024/02/11 00:00:04;;;;;;;4.50;4.10;;;;;;;;;;5024877;28;20904;-59
2024/02/11 00:02:37;;;;;;;4.10;3.73;;;;;;;;;;5027452;28;20626;-58
2024/02/11 00:05:04;;;;;;;4.03;3.70;;;;;;;;;;5025985;28;20184;-57
2024/02/11 00:07:30;;;;;;;5.37;3.67;;;;;;;;;;5027666;28;20284;-58
2024/02/11 00:09:59;;;;;;;3.77;3.47;;;;;;;;;;5026313;28;20561;-57
2024/02/11 00:12:25;;;;;;;5.60;5.10;;;;;;;;;;5028647;28;20768;-57
2024/02/11 00:14:51;;;;;;;5.00;4.30;;;;;;;;;;5029377;28;20189;-58
2024/02/11 00:17:19;;;;;;;4.90;4.40;;;;;;;;;;5025561;28;20273;-58
2024/02/11 00:19:45;;;;;;;4.97;4.47;;;;;;;;;;5025419;28;20239;-58
2024/02/11 00:22:13;;;;;;;4.10;3.70;;;;;;;;;;5031585;28;20174;-58
2024/02/11 00:24:39;;;;;;;4.43;4.03;;;;;;;;;;5029264;28;20185;-58
2024/02/11 00:27:05;;;;;;;4.63;4.23;;;;;;;;;;5031584;28;20177;-59
2024/02/11 00:29:31;;;;;;;4.43;4.03;;;;;;;;;;5029159;28;20621;-58
2024/02/11 00:31:58;;;;;;;4.63;4.23;;;;;;;;;;5031095;28;20212;-58
2024/02/11 00:34:24;;;;;;;4.40;4.00;;;;;;;;;;5030087;28;20219;-59
2024/02/11 00:36:50;;;;;;;8.87;4.17;;;;;;;;;;5029807;28;20170;-58
2024/02/11 00:39:16;;;;;;;4.73;4.30;;;;;;;;;;5028124;28;20587;-58
2024/02/11 00:41:43;;;;;;;4.43;4.07;;;;;;;;;;5030265;28;20174;-59
2024/02/11 00:44:09;;;;;;;4.23;3.93;;;;;;;;;;5029948;28;20666;-59
2024/02/11 00:46:36;;;;;;;4.57;4.07;;;;;;;;;;5028456;28;20177;-58
2024/02/11 00:49:04;;;;;;;4.57;3.93;;;;;;;;;;5026817;28;20351;-58
2024/02/11 00:51:30;;;;;;;4.50;4.10;;;;;;;;;;5032754;28;20293;-58
2024/02/11 00:53:57;;;;;;;4.23;3.83;;;;;;;;;;5029222;28;20190;-58
2024/02/11 00:56:24;;;;;;;4.23;3.83;;;;;;;;;;5030471;28;20530;-58
2024/02/11 00:58:50;;;;;;;5.03;4.63;;;;;;;;;;5028431;28;20189;-57
2024/02/11 01:01:16;;;;;;;4.80;4.40;;;;;;;;;;5028964;28;20173;-56
2024/02/11 01:03:42;;;;;;;4.63;4.20;;;;;;;;;;5029085;28;20195;-58
2024/02/11 01:06:10;;;;;;;4.47;4.07;;;;;;;;;;5029166;28;20201;-58
2024/02/11 01:08:36;;;;;;;5.10;4.13;;;;;;;;;;5027605;28;20202;-58
2024/02/11 01:11:02;;;;;;;4.93;4.53;;;;;;;;;;5030216;28;20185;-58
2024/02/11 01:13:30;;;;;;;6.60;4.23;;;;;;;;;;5029718;28;20200;-58
2024/02/11 01:15:56;;;;;;;4.47;4.13;;;;;;;;;;5029163;28;20181;-58
2024/02/11 01:18:22;;;;;;;4.73;4.23;;;;;;;;;;5029336;28;20579;-59
2024/02/11 01:20:50;;;;;;;4.10;3.70;;;;;;;;;;5029310;28;20186;-59
2024/02/11 01:23:17;;;;;;;4.80;4.40;;;;;;;;;;5027996;28;20182;-58
2024/02/11 01:25:44;;;;;;;5.00;4.50;;;;;;;;;;5029281;28;20181;-59
2024/02/11 01:28:22;;;;;;;4.87;4.47;;;;;;;;;;5027483;28;20209;-57
2024/02/11 01:30:51;;;;;;;4.83;4.33;;;;;;;;;;5027789;28;20186;-60
2024/02/11 01:33:18;;;;;;;4.50;4.10;;;;;;;;;;5028469;28;20567;-57
2024/02/11 01:35:44;;;;;;;5.30;4.47;;;;;;;;;;5028069;28;20193;-58
2024/02/11 01:38:11;;;;;;;4.93;4.53;;;;;;;;;;5028247;28;20684;-58
2024/02/11 01:40:37;;;;;;;4.83;4.37;;;;;;;;;;5029038;28;20688;-57
2024/02/11 01:43:07;;;;;;;5.00;4.50;;;;;;;;;;5028820;28;20236;-57
2024/02/11 01:45:35;;;;;;;4.50;4.10;;;;;;;;;;5025993;28;20656;-57
2024/02/11 01:48:02;;;;;;;4.80;4.40;;;;;;;;;;5028160;28;20554;-58
2024/02/11 01:50:31;;;;;;;4.63;4.23;;;;;;;;;;5028997;28;20188;-57
2024/02/11 01:52:58;;;;;;;5.27;4.57;;;;;;;;;;5028271;28;20649;-56
2024/02/11 01:55:24;;;;;;;4.90;4.40;;;;;;;;;;5029452;28;20188;-57
2024/02/11 01:57:52;;;;;;;5.17;4.50;;;;;;;;;;5021483;28;20664;-58
2024/02/11 02:00:19;;;;;;;4.77;4.37;;;;;;;;;;5028258;28;20273;-56
2024/02/11 02:02:45;;;;;;;4.67;4.20;;;;;;;;;;5029196;28;20228;-58
2024/02/11 02:05:12;;;;;;;5.17;4.40;;;;;;;;;;5027971;28;20600;-57
2024/02/11 02:07:39;;;;;;;4.90;4.30;;;;;;;;;;5028993;28;20267;-57
2024/02/11 02:10:06;;;;;;;4.30;3.97;;;;;;;;;;5027270;28;20174;-55
2024/02/11 02:12:32;;;;;;;4.10;3.70;;;;;;;;;;5028100;28;20261;-54
2024/02/11 02:14:58;;;;;;;4.77;4.33;;;;;;;;;;5028572;28;20174;-54
2024/02/11 02:17:24;;;;;;;4.60;4.17;;;;;;;;;;5029183;28;20174;-54
2024/02/11 02:19:51;;;;;;;4.73;4.07;;;;;;;;;;5026528;28;20234;-54
2024/02/11 02:22:18;;;;;;;4.40;4.00;;;;;;;;;;5028939;28;20176;-55
2024/02/11 02:24:44;;;;;;;4.73;4.23;;;;;;;;;;5021956;28;20221;-54
2024/02/11 02:27:12;;;;;;;5.03;4.40;;;;;;;;;;5026748;28;20182;-55
2024/02/11 02:29:38;;;;;;;5.03;4.17;;;;;;;;;;5028351;28;20263;-55
2024/02/11 02:32:04;;;;;;;5.03;4.63;;;;;;;;;;5029284;28;20220;-53
2024/02/11 02:34:30;;;;;;;6.03;4.20;;;;;;;;;;5027963;28;20182;-55
2024/02/11 02:36:56;;;;;;;4.87;4.13;;;;;;;;;;5028434;28;20308;-54
2024/02/11 02:39:24;;;;;;;4.13;3.73;;;;;;;;;;5028237;28;20281;-54
2024/02/11 02:41:51;;;;;;;4.07;3.70;;;;;;;;;;5028699;28;20533;-54
2024/02/11 02:44:17;;;;;;;4.70;4.30;;;;;;;;;;5027894;28;20217;-54
2024/02/11 02:46:43;;;;;;;4.73;3.87;;;;;;;;;;5028160;28;20228;-54
2024/02/11 02:49:09;;;;;;;4.63;4.10;;;;;;;;;;5027657;28;20227;-54
2024/02/11 02:51:35;;;;;;;4.63;4.13;;;;;;;;;;5028498;28;20223;-54
2024/02/11 02:54:04;;;;;;;4.50;4.10;;;;;;;;;;5026346;28;20189;-54
2024/02/11 02:56:32;;;;;;;4.40;4.00;;;;;;;;;;5028415;28;20299;-54
2024/02/11 02:58:58;;;;;;;4.60;4.20;;;;;;;;;;5027889;28;20185;-54
2024/02/11 03:01:26;;;;;;;4.33;3.93;;;;;;;;;;5027935;28;20185;-54
2024/02/11 03:03:52;;;;;;;4.83;4.43;;;;;;;;;;5027447;28;20185;-54
2024/02/11 03:06:18;;;;;;;4.10;3.70;;;;;;;;;;5028251;28;20212;-54
2024/02/11 03:08:44;;;;;;;4.80;4.40;;;;;;;;;;5025630;28;20744;-54
2024/02/11 03:11:10;;;;;;;4.17;3.77;;;;;;;;;;5027916;28;20228;-53
2024/02/11 03:13:36;;;;;;;3.93;3.60;;;;;;;;;;5027409;28;20276;-55
2024/02/11 03:16:02;;;;;;;4.10;3.80;;;;;;;;;;5025837;28;20265;-54
2024/02/11 03:18:28;;;;;;;4.77;4.37;;;;;;;;;;5025772;28;20574;-54
2024/02/11 03:20:54;;;;;;;7.97;4.43;;;;;;;;;;5027908;28;20189;-54
2024/02/11 03:23:20;;;;;;;4.90;3.90;;;;;;;;;;5026108;28;20218;-53
2024/02/11 03:25:46;;;;;;;4.33;3.93;;;;;;;;;;5026444;28;20782;-53
2024/02/11 03:28:13;;;;;;;4.17;3.77;;;;;;;;;;5027108;28;20309;-54
2024/02/11 03:30:39;;;;;;;4.00;3.60;;;;;;;;;;5025780;28;20197;-54
2024/02/11 03:33:05;;;;;;;4.50;4.10;;;;;;;;;;5025878;28;20489;-54
2024/02/11 03:35:31;;;;;;;4.10;3.80;;;;;;;;;;5026825;28;20223;-53
2024/02/11 03:37:57;;;;;;;4.03;3.73;;;;;;;;;;5026245;28;20650;-55
2024/02/11 03:40:24;;;;;;;5.17;4.13;;;;;;;;;;5027649;28;20698;-55
2024/02/11 03:42:50;;;;;;;4.10;3.70;;;;;;;;;;5027093;28;20622;-54
2024/02/11 03:45:18;;;;;;;4.13;3.73;;;;;;;;;;5026151;28;20638;-54
2024/02/11 03:47:44;;;;;;;4.30;4.00;;;;;;;;;;5021571;28;20237;-54
2024/02/11 03:50:13;;;;;;;4.20;3.80;;;;;;;;;;5024947;28;20281;-54
2024/02/11 03:52:39;;;;;;;5.10;3.50;;;;;;;;;;5027296;28;20225;-54
2024/02/11 03:55:06;;;;;;;3.90;3.50;;;;;;;;;;5025787;28;20584;-54
2024/02/11 03:57:32;;;;;;;3.70;3.40;;;;;;;;;;5024520;28;20186;-54
2024/02/11 03:59:58;;;;;;;3.53;3.07;;;;;;;;;;5025838;28;20211;-54
2024/02/11 04:02:24;;;;;;;4.03;3.73;;;;;;;;;;5026893;28;20803;-54
2024/02/11 04:04:51;;;;;;;4.07;3.67;;;;;;;;;;5025824;28;20184;-54
2024/02/11 04:07:20;;;;;;;10.10;5.10;;;;;;;;;;5027418;28;20170;-54
2024/02/11 04:09:47;;;;;;;3.50;3.20;;;;;;;;;;5023947;28;20183;-55
2024/02/11 04:12:13;;;;;;;3.80;3.50;;;;;;;;;;5026524;28;20190;-54
2024/02/11 04:14:42;;;;;;;3.57;3.27;;;;;;;;;;5024967;28;20337;-54
2024/02/11 04:17:13;;;;;;;4.60;4.23;;;;;;;;;;5026892;28;20548;-54
2024/02/11 04:19:44;;;;;;;5.33;3.80;;;;;;;;;;5024603;28;20236;-55
2024/02/11 04:22:14;;;;;;;3.80;3.50;;;;;;;;;;5027170;28;20675;-54
2024/02/11 04:24:45;;;;;;;4.10;3.70;;;;;;;;;;5025413;28;20455;-54
2024/02/11 04:27:14;;;;;;;3.53;3.23;;;;;;;;;;5026543;28;20287;-55
2024/02/11 04:29:42;;;;;;;3.90;3.60;;;;;;;;;;5025647;28;20209;-54
2024/02/11 04:32:11;;;;;;;4.30;3.90;;;;;;;;;;5025185;28;20566;-55
2024/02/11 04:34:41;;;;;;;3.97;3.57;;;;;;;;;;5019882;28;20170;-55
2024/02/11 04:37:07;;;;;;;4.30;3.37;;;;;;;;;;5021561;28;20330;-54
2024/02/11 04:39:33;;;;;;;3.90;3.50;;;;;;;;;;5025411;28;20190;-55
2024/02/11 04:41:59;;;;;;;4.57;4.17;;;;;;;;;;5026675;28;20453;-54
2024/02/11 04:44:31;;;;;;;3.80;3.50;;;;;;;;;;5025484;28;20674;-54
2024/02/11 04:46:57;;;;;;;4.77;4.00;;;;;;;;;;5026683;28;20267;-54
2024/02/11 04:49:23;;;;;;;4.27;3.87;;;;;;;;;;5025859;28;20242;-54
2024/02/11 04:51:52;;;;;;;4.43;4.03;;;;;;;;;;5027103;28;20182;-54
2024/02/11 04:54:18;;;;;;;4.20;3.80;;;;;;;;;;5024945;28;20296;-54
2024/02/11 04:56:47;;;;;;;3.87;3.57;;;;;;;;;;5026767;28;20173;-55
2024/02/11 04:59:15;;;;;;;5.27;3.90;;;;;;;;;;5027587;28;20197;-55
2024/02/11 05:01:44;;;;;;;3.77;3.37;;;;;;;;;;5029308;28;20186;-54
2024/02/11 05:04:10;;;;;;;4.70;4.30;;;;;;;;;;5033030;28;20602;-54
2024/02/11 05:06:38;;;;;;;4.33;3.90;;;;;;;;;;5030709;28;20557;-54
2024/02/11 05:09:04;;;;;;;4.03;3.63;;;;;;;;;;5028550;28;20223;-54
2024/02/11 05:11:30;;;;;;;6.70;4.33;;;;;;;;;;5030310;28;20579;-54
2024/02/11 05:13:58;;;;;;;3.67;3.17;;;;;;;;;;5029427;28;20186;-54
2024/02/11 05:16:28;;;;;;;4.07;3.63;;;;;;;;;;5027744;28;20178;-54
2024/02/11 05:18:54;;;;;;;4.27;3.87;;;;;;;;;;5028414;28;20237;-54
2024/02/11 05:21:20;;;;;;;4.60;4.20;;;;;;;;;;5029513;28;20649;-54
2024/02/11 05:23:47;;;;;;;4.30;3.90;;;;;;;;;;5028796;28;20530;-54
2024/02/11 05:26:17;;;;;;;4.60;4.20;;;;;;;;;;5029860;28;20274;-54
2024/02/11 05:28:43;;;;;;;4.27;3.80;;;;;;;;;;5028375;28;20202;-54
2024/02/11 05:31:11;;;;;;;4.67;4.27;;;;;;;;;;5029094;28;20193;-55
2024/02/11 05:33:37;;;;;;;4.53;4.13;;;;;;;;;;5029162;28;20186;-54
2024/02/11 05:36:08;;;;;;;4.43;4.03;;;;;;;;;;5027766;28;20348;-55
2024/02/11 05:38:39;;;;;;;4.40;4.00;;;;;;;;;;5028830;28;20651;-55
2024/02/11 05:41:05;;;;;;;5.03;4.53;;;;;;;;;;5029962;28;20177;-55
2024/02/11 05:43:31;;;;;;;5.40;4.27;;;;;;;;;;5029355;28;20275;-54
2024/02/11 05:45:58;;;;;;;6.53;4.77;;;;;;;;;;5028917;28;20194;-54
2024/02/11 05:48:24;;;;;;;5.50;4.67;;;;;;;;;;5028947;28;20500;-54
2024/02/11 05:50:50;;;;;;;5.73;5.13;;;;;;;;;;5028977;28;20181;-54
2024/02/11 05:53:17;;;;;;;5.67;5.13;;;;;;;;;;5028465;28;20840;-54
2024/02/11 05:55:43;;;;;;;6.57;4.90;;;;;;;;;;5028735;28;20189;-54
2024/02/11 05:58:09;;;;;;;6.40;5.17;;;;;;;;;;5018663;28;20190;-54
2024/02/11 06:00:42;;;;;;;8.37;5.80;;;;;;;;;;5026707;28;20260;-55
2024/02/11 06:03:09;;;;;;;6.30;5.50;;;;;;;;;;5026791;28;20186;-55
2024/02/11 06:05:35;;;;;;;5.80;5.30;;;;;;;;;;5028977;28;20659;-54
2024/02/11 06:08:01;;;;;;;7.47;5.63;;;;;;;;;;5027976;28;20198;-55
2024/02/11 06:10:33;;;;;;;5.70;5.20;;;;;;;;;;5027452;28;20178;-54
2024/02/11 06:13:01;;;;;;;5.40;4.83;;;;;;;;;;5028192;28;20494;-54
2024/02/11 06:15:29;;;;;;;5.30;4.73;;;;;;;;;;5028894;28;20209;-54
2024/02/11 06:17:57;;;;;;;6.10;4.57;;;;;;;;;;5028634;28;20316;-54
2024/02/11 06:20:24;;;;;;;5.43;4.10;;;;;;;;;;5028330;28;20213;-55
2024/02/11 06:22:51;;;;;;;4.33;3.90;;;;;;;;;;5026494;28;20201;-54
2024/02/11 06:25:20;;;;;;;6.03;4.50;;;;;;;;;;5025044;28;20191;-54
2024/02/11 06:27:48;;;;;;;3.73;3.43;;;;;;;;;;5027395;28;20201;-54
2024/02/11 06:30:14;;;;;;;4.67;4.27;;;;;;;;;;5026826;28;20216;-55
2024/02/11 06:32:45;;;;;;;4.37;3.87;;;;;;;;;;5028028;28;20231;-54
2024/02/11 06:35:11;;;;;;;4.07;3.60;;;;;;;;;;5027434;28;20212;-54
2024/02/11 06:37:38;;;;;;;4.20;3.80;;;;;;;;;;5029147;28;20162;-53
2024/02/11 06:40:05;;;;;;;4.23;3.83;;;;;;;;;;5026464;28;20265;-54
2024/02/11 06:42:32;;;;;;;3.87;3.47;;;;;;;;;;5027451;28;20205;-55
2024/02/11 06:44:59;;;;;;;5.77;3.70;;;;;;;;;;5026912;28;20185;-54
2024/02/11 06:47:25;;;;;;;4.00;3.67;;;;;;;;;;5027351;28;20200;-54
2024/02/11 06:49:51;;;;;;;3.93;3.57;;;;;;;;;;5027111;28;20571;-54
2024/02/11 06:52:17;;;;;;;4.07;3.67;;;;;;;;;;5027738;28;20610;-54
2024/02/11 06:54:43;;;;;;;5.90;3.97;;;;;;;;;;5026302;28;20181;-54
2024/02/11 06:57:14;;;;;;;3.30;3.00;;;;;;;;;;5028651;28;20170;-55
2024/02/11 06:59:40;;;;;;;4.77;3.40;;;;;;;;;;5025813;28;20276;-53
2024/02/11 07:02:08;;;;;;;6.20;3.70;;;;;;;;;;5024463;28;20610;-55
2024/02/11 07:04:34;;;;;;;5.57;3.80;;;;;;;;;;5027690;28;20185;-54
2024/02/11 07:07:02;;;;;;;4.83;3.87;;;;;;;;;;5028391;28;20213;-53
2024/02/11 07:09:29;;;;;;;3.97;3.57;;;;;;;;;;5025117;28;20279;-53
2024/02/11 07:11:55;;;;;;;4.53;3.43;;;;;;;;;;5026795;28;20684;-54
2024/02/11 07:14:21;;;;;;;4.70;3.30;;;;;;;;;;5028149;28;20630;-53
2024/02/11 07:16:49;;;;;;;5.07;3.77;;;;;;;;;;5027325;28;20188;-54
2024/02/11 07:19:15;;;;;;;4.57;3.57;;;;;;;;;;5025943;28;20235;-55
2024/02/11 07:21:41;;;;;;;4.67;3.40;;;;;;;;;;5026843;28;20244;-53
2024/02/11 07:24:07;;;;;;;5.10;3.47;;;;;;;;;;5026089;28;20232;-54
2024/02/11 07:26:34;;;;;;;5.50;3.50;;;;;;;;;;5026945;28;20680;-54
2024/02/11 07:29:00;;;;;;;6.13;3.67;;;;;;;;;;5026199;28;20213;-53
2024/02/11 07:31:27;;;;;;;5.70;3.10;;;;;;;;;;5022963;28;20196;-54
2024/02/11 07:33:54;;;;;;;5.03;3.40;;;;;;;;;;5026805;28;20200;-53
2024/02/11 07:36:22;;;;;;;4.57;3.37;;;;;;;;;;5027188;28;20200;-54
2024/02/11 07:38:51;;;;;;;6.60;3.60;;;;;;;;;;5026054;28;20212;-54
2024/02/11 07:41:17;;;;;;;4.33;3.40;;;;;;;;;;5026901;28;20208;-54
2024/02/11 07:43:43;;;;;;;4.33;3.50;;;;;;;;;;5026554;28;20297;-53
2024/02/11 07:46:09;;;;;;;6.80;4.37;;;;;;;;;;5026100;28;20673;-54
2024/02/11 07:48:35;;;;;;;5.67;3.63;;;;;;;;;;5026029;28;20546;-54
2024/02/11 07:51:01;;;;;;;5.47;3.70;;;;;;;;;;5026526;28;20190;-54
2024/02/11 07:53:27;;;;;;;5.33;3.57;;;;;;;;;;5026074;28;20189;-54
2024/02/11 07:55:53;;;;;;;5.10;3.30;;;;;;;;;;5026663;28;20178;-53
2024/02/11 07:58:19;;;;;;;5.47;3.87;;;;;;;;;;5021686;28;20190;-54
2024/02/11 08:00:45;;;;;;;8.17;3.13;;;;;;;;;;5020733;28;20185;-53
2024/02/11 08:03:12;;;;;;;6.10;3.27;;;;;;;;;;5016943;28;20308;-54
2024/02/11 08:05:38;;;;;;;3.67;2.90;;;;;;;;;;5018074;28;20619;-54
2024/02/11 08:08:05;;;;;;;7.87;3.30;;;;;;;;;;5022257;28;20255;-54
2024/02/11 08:10:31;;;;;;;5.60;3.33;;;;;;;;;;5026425;28;20189;-54
2024/02/11 08:12:57;;;;;;;7.23;4.20;;;;;;;;;;5021920;28;20645;-53
2024/02/11 08:15:23;;;;;;;6.00;3.23;;;;;;;;;;5026439;28;20170;-53
2024/02/11 08:17:50;;;;;;;8.30;3.47;;;;;;;;;;5026049;28;20259;-53
2024/02/11 08:20:18;;;;;;;7.93;3.23;;;;;;;;;;5024563;28;20185;-54
2024/02/11 08:22:45;;;;;;;4.90;3.07;;;;;;;;;;5024478;28;20171;-54
2024/02/11 08:25:12;;;;;;;4.73;3.20;;;;;;;;;;5023348;28;20190;-56
2024/02/11 08:27:38;;;;;;;8.60;3.53;;;;;;;;;;5025518;28;20170;-56
2024/02/11 08:30:05;;;;;;;5.57;3.27;;;;;;;;;;5022178;28;20649;-57
2024/02/11 08:32:31;;;;;;;5.07;3.10;;;;;;;;;;5026130;28;20178;-57
2024/02/11 08:34:57;;;;;;;4.77;3.10;;;;;;;;;;5026739;28;20193;-57
2024/02/11 08:37:23;;;;;;;4.53;2.77;;;;;;;;;;5023776;28;20174;-57
2024/02/11 08:39:50;;;;;;;7.27;3.23;;;;;;;;;;5028438;28;20177;-57
2024/02/11 08:42:16;;;;;;;3.97;3.07;;;;;;;;;;5027669;28;20208;-57
2024/02/11 08:44:42;;;;;;;5.53;3.47;;;;;;;;;;5026321;28;20676;-57
2024/02/11 08:47:09;;;;;;;4.37;2.93;;;;;;;;;;5024016;28;20178;-56
2024/02/11 08:49:35;;;;;;;6.77;3.30;;;;;;;;;;5026710;28;20210;-56
2024/02/11 08:52:01;;;;;;;5.10;3.13;;;;;;;;;;5026397;28;20449;-56
2024/02/11 08:54:27;;;;;;;5.77;3.17;;;;;;;;;;5028101;28;20185;-56
2024/02/11 08:56:54;;;;;;;4.43;2.77;;;;;;;;;;5029045;28;20174;-56
2024/02/11 08:59:20;;;;;;;4.60;2.87;;;;;;;;;;5019983;28;20212;-56
2024/02/11 09:01:52;;;;;;;5.30;3.80;;;;;;;;;;5027780;28;20621;-56
2024/02/11 09:04:19;;;;;;;7.37;3.23;;;;;;;;;;5026806;28;20186;-57
2024/02/11 09:06:46;;;;;;;5.43;4.13;;;;;;;;;;5024904;28;20269;-57
2024/02/11 09:09:12;;;;;;;4.57;3.53;;;;;;;;;;5023382;28;20205;-55
2024/02/11 09:11:41;;;;;;;6.50;3.63;;;;;;;;;;5027888;28;20190;-53
2024/02/11 09:14:07;;;;;;;5.93;3.97;;;;;;;;;;5026535;28;20611;-53
2024/02/11 09:16:33;;;;;;;7.20;4.23;;;;;;;;;;5024041;28;20625;-54
2024/02/11 09:18:59;;;;;;;5.87;3.60;;;;;;;;;;5022176;28;20320;-54
2024/02/11 09:21:25;;;;;;;5.30;3.90;;;;;;;;;;5028430;28;20627;-53
2024/02/11 09:23:51;;;;;;;5.73;3.60;;;;;;;;;;5019634;28;20186;-53
2024/02/11 09:26:17;;;;;;;6.53;3.70;;;;;;;;;;5024656;28;20638;-53
2024/02/11 09:28:43;;;;;;;5.83;3.77;;;;;;;;;;5023578;28;20263;-52
2024/02/11 09:31:10;;;;;;;6.33;4.00;;;;;;;;;;5025176;28;20193;-53
2024/02/11 09:33:40;;;;;;;7.43;4.13;;;;;;;;;;5024335;28;20201;-53
2024/02/11 09:36:06;;;;;;;6.67;4.60;;;;;;;;;;5026496;28;20203;-52
2024/02/11 09:38:32;;;;;;;7.27;4.53;;;;;;;;;;5026938;28;20193;-52
2024/02/11 09:40:58;;;;;;;6.87;4.50;;;;;;;;;;5026229;28;20607;-52
2024/02/11 09:43:25;;;;;;;6.30;4.37;;;;;;;;;;5027034;28;20236;-53
2024/02/11 09:45:52;;;;;;;7.83;4.93;;;;;;;;;;5026967;28;20216;-53
2024/02/11 09:48:18;;;;;;;7.50;5.20;;;;;;;;;;5025856;28;20294;-53
2024/02/11 09:50:44;;;;;;;7.00;5.17;;;;;;;;;;5028692;28;20724;-52
2024/02/11 09:53:14;;;;;;;5.30;4.57;;;;;;;;;;5027273;28;20197;-54
2024/02/11 09:55:41;;;;;;;9.30;5.03;;;;;;;;;;5028936;28;20189;-53
2024/02/11 09:58:07;;;;;;;7.70;5.30;;;;;;;;;;5029343;28;20280;-52
2024/02/11 10:00:33;;;;;;;8.67;4.90;;;;;;;;;;5030101;28;20286;-53
2024/02/11 10:03:02;;;;;;;8.10;5.07;;;;;;;;;;5028440;28;20273;-53
2024/02/11 10:05:30;;;;;;;8.77;5.77;;;;;;;;;;5022202;28;20557;-52
2024/02/11 10:07:59;;;;;;;10.53;5.40;;;;;;;;;;5022537;28;20185;-54
2024/02/11 10:10:27;;;;;;;13.40;5.23;;;;;;;;;;5028534;28;20180;-52
2024/02/11 10:12:57;;;;;;;11.40;5.87;;;;;;;;;;5027799;28;20204;-54
2024/02/11 10:15:25;;;;;;;7.60;5.07;;;;;;;;;;5025389;28;20200;-53
2024/02/11 10:17:51;;;;;;;8.13;5.63;;;;;;;;;;5026731;28;20232;-53
2024/02/11 10:20:18;;;;;;;11.63;5.93;;;;;;;;;;5029402;28;20185;-53
2024/02/11 10:22:44;;;;;;;10.40;7.70;;;;;;;;;;5023782;28;20178;-53
2024/02/11 10:25:11;;;;;;;9.07;8.17;;;;;;;;;;5023815;28;20562;-55
2024/02/11 10:27:38;;;;;;;10.37;6.83;;;;;;;;;;5022450;28;20186;-54
2024/02/11 10:30:11;;;;;;;8.80;6.43;;;;;;;;;;5024235;28;20182;-53
2024/02/11 10:32:38;;;;;;;7.30;6.60;;;;;;;;;;5022801;28;20175;-54
2024/02/11 10:35:04;;;;;;;8.53;6.03;;;;;;;;;;5025607;28;20630;-53
2024/02/11 10:37:45;;;;;;;9.57;5.70;;;;;;;;;;5021654;28;20510;-53
2024/02/11 10:40:11;;;;;;;6.17;5.03;;;;;;;;;;5022873;28;20174;-53
2024/02/11 10:42:40;;;;;;;7.07;6.37;;;;;;;;;;5028423;28;20665;-53
2024/02/11 10:45:07;;;;;;;7.87;5.40;;;;;;;;;;5027000;28;20193;-53
2024/02/11 10:47:33;;;;;;;7.10;5.10;;;;;;;;;;5024988;28;20186;-53
2024/02/11 10:49:59;;;;;;;7.10;4.70;;;;;;;;;;5026468;28;20292;-54
2024/02/11 10:52:29;;;;;;;9.07;6.40;;;;;;;;;;5027260;28;20182;-53
2024/02/11 10:54:56;;;;;;;7.50;5.83;;;;;;;;;;5021731;28;20158;-53
2024/02/11 10:57:22;;;;;;;7.67;5.07;;;;;;;;;;5027565;28;20189;-53
2024/02/11 11:00:08;;;;;;;7.83;5.30;;;;;;;;;;5026756;28;20220;-53
2024/02/11 11:02:36;;;;;;;8.90;5.70;;;;;;;;;;5021572;28;20545;-54
2024/02/11 11:05:03;;;;;;;5.63;4.63;;;;;;;;;;5022037;28;20236;-54
2024/02/11 11:07:31;;;;;;;8.77;4.53;;;;;;;;;;5025687;28;20231;-54
2024/02/11 11:09:57;;;;;;;7.30;4.93;;;;;;;;;;5025206;28;20723;-53
2024/02/11 11:12:24;;;;;;;8.37;6.77;;;;;;;;;;5024638;28;20182;-54
2024/02/11 11:14:55;;;;;;;7.47;5.47;;;;;;;;;;5024284;28;20181;-53
2024/02/11 11:17:25;;;;;;;4.97;4.37;;;;;;;;;;5024782;28;20188;-54
2024/02/11 11:19:52;;;;;;;6.87;4.63;;;;;;;;;;5027050;28;20233;-54
2024/02/11 11:22:28;;;;;;;9.23;5.50;;;;;;;;;;5027552;28;20179;-53
2024/02/11 11:24:55;;;;;;;5.20;4.07;;;;;;;;;;5021792;28;20212;-55
2024/02/11 11:27:21;;;;;;;7.03;5.10;;;;;;;;;;5023697;28;20237;-53
2024/02/11 11:29:48;;;;;;;9.37;4.27;;;;;;;;;;5025391;28;20222;-54
2024/02/11 11:32:18;;;;;;;7.10;4.80;;;;;;;;;;5026643;28;20186;-54
2024/02/11 11:34:51;;;;;;;7.80;5.03;;;;;;;;;;5025667;28;20702;-54
2024/02/11 11:37:18;;;;;;;7.67;4.63;;;;;;;;;;5027624;28;20220;-54
2024/02/11 11:39:44;;;;;;;7.97;4.17;;;;;;;;;;5026366;28;20211;-55
2024/02/11 11:42:10;;;;;;;7.00;4.40;;;;;;;;;;5025609;28;20675;-54
2024/02/11 11:44:38;;;;;;;7.33;4.67;;;;;;;;;;5022964;28;20209;-54
2024/02/11 11:47:05;;;;;;;6.90;4.57;;;;;;;;;;5027004;28;20244;-54
2024/02/11 11:49:35;;;;;;;6.83;4.43;;;;;;;;;;5025506;28;20261;-54
2024/02/11 11:52:02;;;;;;;9.17;5.00;;;;;;;;;;5027546;28;20186;-54
2024/02/11 11:54:28;;;;;;;7.70;4.00;;;;;;;;;;5021550;28;20194;-55
2024/02/11 11:56:58;;;;;;;7.23;4.23;;;;;;;;;;5012470;28;20285;-55
2024/02/11 11:59:25;;;;;;;8.30;4.60;;;;;;;;;;5018868;28;20623;-54
2024/02/11 12:01:55;;;;;;;10.13;4.80;;;;;;;;;;5025821;28;20206;-55
2024/02/11 12:04:22;;;;;;;8.57;4.33;;;;;;;;;;5025383;28;20281;-55
2024/02/11 12:06:48;;;;;;;7.53;4.57;;;;;;;;;;5025017;28;20193;-54
2024/02/11 12:09:14;;;;;;;5.73;3.83;;;;;;;;;;5021524;28;20339;-54
2024/02/11 12:11:44;;;;;;;5.83;4.57;;;;;;;;;;5025131;28;20227;-54
2024/02/11 12:14:13;;;;;;;7.83;4.57;;;;;;;;;;5023371;28;20180;-54
2024/02/11 12:16:40;;;;;;;6.93;4.17;;;;;;;;;;5030923;28;20234;-54
2024/02/11 12:19:06;;;;;;;5.87;4.30;;;;;;;;;;5028822;28;20256;-54
2024/02/11 12:21:32;;;;;;;5.93;4.40;;;;;;;;;;5031550;28;20185;-55
2024/02/11 12:24:04;;;;;;;10.13;4.80;;;;;;;;;;5029546;28;20622;-56
2024/02/11 12:26:30;;;;;;;8.77;4.50;;;;;;;;;;5026062;28;20197;-54
2024/02/11 12:28:58;;;;;;;6.00;4.47;;;;;;;;;;5029593;28;20220;-54
2024/02/11 12:31:26;;;;;;;8.80;4.00;;;;;;;;;;5028225;28;20178;-57
2024/02/11 12:33:53;;;;;;;4.67;3.87;;;;;;;;;;5019676;28;20409;-54
2024/02/11 12:36:21;;;;;;;7.97;4.00;;;;;;;;;;5021257;28;20173;-54
2024/02/11 12:38:48;;;;;;;7.30;3.90;;;;;;;;;;5022535;28;20651;-54
2024/02/11 12:41:14;;;;;;;8.83;3.93;;;;;;;;;;5028246;28;20228;-54
2024/02/11 12:43:50;;;;;;;6.10;3.80;;;;;;;;;;5021786;28;20209;-55
2024/02/11 12:46:16;;;;;;;7.53;3.70;;;;;;;;;;5027444;28;20653;-55
2024/02/11 12:48:43;;;;;;;6.73;3.47;;;;;;;;;;5026922;28;20705;-54
2024/02/11 12:51:13;;;;;;;6.97;3.90;;;;;;;;;;5021144;28;20181;-55
2024/02/11 12:53:40;;;;;;;7.77;3.90;;;;;;;;;;5020580;28;20301;-55
2024/02/11 12:56:07;;;;;;;12.30;3.80;;;;;;;;;;5028950;28;20572;-54
2024/02/11 12:58:33;;;;;;;5.00;3.50;;;;;;;;;;5022593;28;20691;-55
2024/02/11 13:01:00;;;;;;;4.53;3.10;;;;;;;;;;5021953;28;20649;-55
2024/02/11 13:03:26;;;;;;;4.93;3.80;;;;;;;;;;5025610;28;20197;-55
2024/02/11 13:05:55;;;;;;;4.37;2.90;;;;;;;;;;5022043;28;20174;-55
2024/02/11 13:08:31;;;;;;;4.30;3.20;;;;;;;;;;5019958;28;20233;-55
2024/02/11 13:10:58;;;;;;;7.53;3.50;;;;;;;;;;5021782;28;20478;-55
2024/02/11 13:13:24;;;;;;;5.87;3.57;;;;;;;;;;5012352;28;20625;-55
2024/02/11 13:15:50;;;;;;;4.73;3.00;;;;;;;;;;5018680;28;20174;-55
2024/02/11 13:18:17;;;;;;;5.43;2.77;;;;;;;;;;5024184;28;20346;-55
2024/02/11 13:20:43;;;;;;;5.33;2.90;;;;;;;;;;5024257;28;20232;-54
2024/02/11 13:23:10;;;;;;;6.30;3.43;;;;;;;;;;5020819;28;20237;-55
2024/02/11 13:25:37;;;;;;;5.40;3.17;;;;;;;;;;5019290;28;20265;-54
2024/02/11 13:28:03;;;;;;;7.03;2.77;;;;;;;;;;5028453;28;20186;-54
2024/02/11 13:30:30;;;;;;;4.40;3.00;;;;;;;;;;5024916;28;20693;-54
2024/02/11 13:32:57;;;;;;;5.20;3.00;;;;;;;;;;5028271;28;20292;-54
2024/02/11 13:35:23;;;;;;;4.13;2.77;;;;;;;;;;5027185;28;20189;-55
2024/02/11 13:37:49;;;;;;;4.37;2.60;;;;;;;;;;5029084;28;20665;-54
2024/02/11 13:40:15;;;;;;;6.53;3.20;;;;;;;;;;5031948;28;20181;-55
2024/02/11 13:42:42;;;;;;;4.67;2.77;;;;;;;;;;5028798;28;20197;-54
2024/02/11 13:45:13;;;;;;;3.37;2.60;;;;;;;;;;5025782;28;20319;-55
2024/02/11 13:47:41;;;;;;;3.77;2.80;;;;;;;;;;5019958;28;20197;-54
2024/02/11 13:50:08;;;;;;;6.43;2.90;;;;;;;;;;5025567;28;20643;-54
2024/02/11 13:52:35;;;;;;;5.00;2.80;;;;;;;;;;5015990;28;20587;-56
2024/02/11 13:55:03;;;;;;;7.17;3.33;;;;;;;;;;5023613;28;20213;-57
2024/02/11 13:57:31;;;;;;;3.90;3.07;;;;;;;;;;5023096;28;20201;-56
2024/02/11 13:59:58;;;;;;;4.83;2.43;;;;;;;;;;5026984;28;20178;-57
2024/02/11 14:02:26;;;;;;;4.87;2.27;;;;;;;;;;5029029;28;20545;-54
2024/02/11 14:04:52;;;;;;;5.40;2.80;;;;;;;;;;5027562;28;20309;-54
2024/02/11 14:07:18;;;;;;;5.37;2.43;;;;;;;;;;5021690;28;20317;-54
2024/02/11 14:09:45;;;;;;;2.63;2.20;;;;;;;;;;5023252;28;20285;-54
2024/02/11 14:12:12;;;;;;;4.97;2.23;;;;;;;;;;5021124;28;20186;-54
2024/02/11 14:14:41;;;;;;;4.33;2.23;;;;;;;;;;5019323;28;20194;-54
2024/02/11 14:17:07;;;;;;;4.57;2.13;;;;;;;;;;5020492;28;20228;-54
2024/02/11 14:19:33;;;;;;;4.97;2.27;;;;;;;;;;5019651;28;20301;-54
2024/02/11 14:22:00;;;;;;;5.83;2.10;;;;;;;;;;5021807;28;20502;-54
2024/02/11 14:24:26;;;;;;;4.37;2.80;;;;;;;;;;5015574;28;20206;-53
2024/02/11 14:26:53;;;;;;;4.23;2.17;;;;;;;;;;5019500;28;20251;-53
2024/02/11 14:29:19;;;;;;;4.63;2.50;;;;;;;;;;5020686;28;20344;-54
2024/02/11 14:31:45;;;;;;;3.73;2.40;;;;;;;;;;5020053;28;20226;-54
2024/02/11 14:34:12;;;;;;;2.67;1.93;;;;;;;;;;5025946;28;20814;-54
2024/02/11 14:36:38;;;;;;;6.07;2.40;;;;;;;;;;5024551;28;20159;-55
2024/02/11 14:39:07;;;;;;;3.43;2.63;;;;;;;;;;5024782;28;20193;-53
2024/02/11 14:41:36;;;;;;;5.10;2.47;;;;;;;;;;5019752;28;20199;-53